sensor_id;sensor_type;location;lat;lon;timestamp;temperature;humidity
10411;DHT22;5251;52.112;8.606;2022-09-09T00:00:15;16.70;99.90
10411;DHT22;5251;52.112;8.606;2022-09-09T00:03:16;16.70;99.90
10411;DHT22;5251;52.112;8.606;2022-09-09T00:06:24;16.70;99.90
10411;DHT22;5251;52.112;8.606;2022-09-09T00:16:56;16.70;99.90
10411;DHT22;5251;52.112;8.606;2022-09-09T00:22:22;16.70;99.90
10411;DHT22;5251;52.112;8.606;2022-09-09T00:24:54;16.70;99.90
10411;DHT22;5251;52.112;8.606;2022-09-09T00:27:45;16.70;99.90
10411;DHT22;5251;52.112;8.606;2022-09-09T00:30:19;16.60;99.90
10411;DHT22;5251;52.112;8.606;2022-09-09T00:32:49;16.60;99.90
10411;DHT22;5251;52.112;8.606;2022-09-09T00:35:24;16.60;99.90
10411;DHT22;5251;52.112;8.606;2022-09-09T00:37:55;16.60;99.90
10411;DHT22;5251;52.112;8.606;2022-09-09T00:40:27;16.60;99.90
10411;DHT22;5251;52.112;8.606;2022-09-09T00:48:24;16.80;99.90
10411;DHT22;5251;52.112;8.606;2022-09-09T00:50:57;16.80;99.90
10411;DHT22;5251;52.112;8.606;2022-09-09T00:56:19;17.00;99.90
10411;DHT22;5251;52.112;8.606;2022-09-09T00:59:52;17.10;99.90
10411;DHT22;5251;52.112;8.606;2022-09-09T01:01:53;17.10;99.90
10411;DHT22;5251;52.112;8.606;2022-09-09T01:04:27;17.10;99.90
10411;DHT22;5251;52.112;8.606;2022-09-09T01:07:02;17.20;99.90
10411;DHT22;5251;52.112;8.606;2022-09-09T01:12:10;17.10;99.90
10411;DHT22;5251;52.112;8.606;2022-09-09T01:14:39;17.10;99.90
10411;DHT22;5251;52.112;8.606;2022-09-09T01:17:21;17.10;99.90
10411;DHT22;5251;52.112;8.606;2022-09-09T01:28:18;17.00;99.90
10411;DHT22;5251;52.112;8.606;2022-09-09T01:30:44;17.00;99.90
10411;DHT22;5251;52.112;8.606;2022-09-09T01:33:14;17.00;99.90
10411;DHT22;5251;52.112;8.606;2022-09-09T01:35:57;17.00;99.90
10411;DHT22;5251;52.112;8.606;2022-09-09T01:38:27;17.00;99.90
10411;DHT22;5251;52.112;8.606;2022-09-09T01:40:53;17.00;99.90
10411;DHT22;5251;52.112;8.606;2022-09-09T01:43:23;17.00;99.90
10411;DHT22;5251;52.112;8.606;2022-09-09T01:45:52;17.00;99.90
10411;DHT22;5251;52.112;8.606;2022-09-09T01:48:19;17.00;99.90
10411;DHT22;5251;52.112;8.606;2022-09-09T01:50:45;17.00;99.90
10411;DHT22;5251;52.112;8.606;2022-09-09T01:53:11;17.00;99.90
10411;DHT22;5251;52.112;8.606;2022-09-09T01:55:42;17.10;99.90
10411;DHT22;5251;52.112;8.606;2022-09-09T02:00:45;17.10;99.90
10411;DHT22;5251;52.112;8.606;2022-09-09T02:03:25;17.20;99.90
10411;DHT22;5251;52.112;8.606;2022-09-09T02:05:59;17.20;99.90
10411;DHT22;5251;52.112;8.606;2022-09-09T02:11:11;17.30;99.90
10411;DHT22;5251;52.112;8.606;2022-09-09T02:13:39;17.30;99.90
10411;DHT22;5251;52.112;8.606;2022-09-09T02:16:08;17.40;99.90
10411;DHT22;5251;52.112;8.606;2022-09-09T02:18:50;17.40;99.90
10411;DHT22;5251;52.112;8.606;2022-09-09T02:21:17;17.50;99.90
10411;DHT22;5251;52.112;8.606;2022-09-09T02:23:43;17.50;99.90
10411;DHT22;5251;52.112;8.606;2022-09-09T02:26:12;17.60;99.90
10411;DHT22;5251;52.112;8.606;2022-09-09T02:28:45;17.60;99.90
10411;DHT22;5251;52.112;8.606;2022-09-09T02:31:13;17.60;99.90
10411;DHT22;5251;52.112;8.606;2022-09-09T02:33:44;17.60;99.90
10411;DHT22;5251;52.112;8.606;2022-09-09T02:36:12;17.60;99.90
10411;DHT22;5251;52.112;8.606;2022-09-09T02:38:45;17.70;99.90
10411;DHT22;5251;52.112;8.606;2022-09-09T02:41:34;17.70;99.90
10411;DHT22;5251;52.112;8.606;2022-09-09T02:44:01;17.70;99.90
10411;DHT22;5251;52.112;8.606;2022-09-09T02:47:07;17.70;99.90
10411;DHT22;5251;52.112;8.606;2022-09-09T02:55:43;17.70;99.90
10411;DHT22;5251;52.112;8.606;2022-09-09T02:58:14;17.60;99.90
10411;DHT22;5251;52.112;8.606;2022-09-09T03:00:43;17.70;99.90
10411;DHT22;5251;52.112;8.606;2022-09-09T03:03:09;17.70;99.90
10411;DHT22;5251;52.112;8.606;2022-09-09T03:05:35;17.70;99.90
10411;DHT22;5251;52.112;8.606;2022-09-09T03:08:01;17.70;99.90
10411;DHT22;5251;52.112;8.606;2022-09-09T03:10:27;17.70;99.90
10411;DHT22;5251;52.112;8.606;2022-09-09T03:12:53;17.80;99.90
10411;DHT22;5251;52.112;8.606;2022-09-09T03:15:18;17.80;99.90
10411;DHT22;5251;52.112;8.606;2022-09-09T03:17:44;17.80;99.90
10411;DHT22;5251;52.112;8.606;2022-09-09T03:20:10;17.80;99.90
10411;DHT22;5251;52.112;8.606;2022-09-09T03:22:35;17.90;99.90
10411;DHT22;5251;52.112;8.606;2022-09-09T03:25:01;17.90;99.90
10411;DHT22;5251;52.112;8.606;2022-09-09T03:27:28;17.90;99.90
10411;DHT22;5251;52.112;8.606;2022-09-09T03:29:54;17.90;99.90
10411;DHT22;5251;52.112;8.606;2022-09-09T03:32:21;17.90;99.90
10411;DHT22;5251;52.112;8.606;2022-09-09T03:34:48;17.90;99.90
10411;DHT22;5251;52.112;8.606;2022-09-09T03:37:15;17.90;99.90
10411;DHT22;5251;52.112;8.606;2022-09-09T03:39:41;17.90;99.90
10411;DHT22;5251;52.112;8.606;2022-09-09T03:42:07;17.90;99.90
10411;DHT22;5251;52.112;8.606;2022-09-09T03:44:32;17.90;99.90
10411;DHT22;5251;52.112;8.606;2022-09-09T03:46:58;17.90;99.90
10411;DHT22;5251;52.112;8.606;2022-09-09T03:49:26;17.90;99.90
10411;DHT22;5251;52.112;8.606;2022-09-09T03:51:54;17.90;99.90
10411;DHT22;5251;52.112;8.606;2022-09-09T03:54:22;17.90;99.90
10411;DHT22;5251;52.112;8.606;2022-09-09T03:56:48;17.90;99.90
10411;DHT22;5251;52.112;8.606;2022-09-09T03:59:13;17.90;99.90
10411;DHT22;5251;52.112;8.606;2022-09-09T04:01:39;17.90;99.90
10411;DHT22;5251;52.112;8.606;2022-09-09T04:04:05;17.90;99.90
10411;DHT22;5251;52.112;8.606;2022-09-09T04:06:31;17.90;99.90
10411;DHT22;5251;52.112;8.606;2022-09-09T04:08:56;17.90;99.90
10411;DHT22;5251;52.112;8.606;2022-09-09T04:11:22;17.90;99.90
10411;DHT22;5251;52.112;8.606;2022-09-09T04:13:48;17.90;99.90
10411;DHT22;5251;52.112;8.606;2022-09-09T04:16:14;17.90;99.90
10411;DHT22;5251;52.112;8.606;2022-09-09T04:18:40;17.90;99.90
10411;DHT22;5251;52.112;8.606;2022-09-09T04:21:06;17.90;99.90
10411;DHT22;5251;52.112;8.606;2022-09-09T04:23:32;17.90;99.90
10411;DHT22;5251;52.112;8.606;2022-09-09T04:26:00;17.90;99.90
10411;DHT22;5251;52.112;8.606;2022-09-09T04:28:29;17.80;99.90
10411;DHT22;5251;52.112;8.606;2022-09-09T04:30:55;17.90;99.90
10411;DHT22;5251;52.112;8.606;2022-09-09T04:33:24;17.90;99.90
10411;DHT22;5251;52.112;8.606;2022-09-09T04:35:53;17.90;99.90
10411;DHT22;5251;52.112;8.606;2022-09-09T04:38:19;17.90;99.90
10411;DHT22;5251;52.112;8.606;2022-09-09T04:40:50;17.90;99.90
10411;DHT22;5251;52.112;8.606;2022-09-09T04:43:17;17.90;99.90
10411;DHT22;5251;52.112;8.606;2022-09-09T04:45:46;17.90;99.90
10411;DHT22;5251;52.112;8.606;2022-09-09T04:48:11;17.90;99.90
10411;DHT22;5251;52.112;8.606;2022-09-09T04:50:37;17.90;99.90
10411;DHT22;5251;52.112;8.606;2022-09-09T04:53:03;18.00;99.90
10411;DHT22;5251;52.112;8.606;2022-09-09T04:55:30;18.00;99.90
10411;DHT22;5251;52.112;8.606;2022-09-09T04:57:56;18.00;99.90
10411;DHT22;5251;52.112;8.606;2022-09-09T05:00:23;18.00;99.90
10411;DHT22;5251;52.112;8.606;2022-09-09T05:02:49;18.10;99.90
10411;DHT22;5251;52.112;8.606;2022-09-09T05:05:15;18.10;99.90
10411;DHT22;5251;52.112;8.606;2022-09-09T05:07:41;18.10;99.90
10411;DHT22;5251;52.112;8.606;2022-09-09T05:10:07;18.10;99.90
10411;DHT22;5251;52.112;8.606;2022-09-09T05:12:33;18.10;99.90
10411;DHT22;5251;52.112;8.606;2022-09-09T05:14:58;18.10;99.90
10411;DHT22;5251;52.112;8.606;2022-09-09T05:17:24;18.20;99.90
10411;DHT22;5251;52.112;8.606;2022-09-09T05:19:50;18.20;99.90
10411;DHT22;5251;52.112;8.606;2022-09-09T05:22:19;18.20;99.90
10411;DHT22;5251;52.112;8.606;2022-09-09T05:24:45;18.20;99.90
10411;DHT22;5251;52.112;8.606;2022-09-09T05:27:11;18.20;99.90
10411;DHT22;5251;52.112;8.606;2022-09-09T05:29:37;18.20;99.90
10411;DHT22;5251;52.112;8.606;2022-09-09T05:32:04;18.30;99.90
10411;DHT22;5251;52.112;8.606;2022-09-09T05:34:29;18.30;99.90
10411;DHT22;5251;52.112;8.606;2022-09-09T05:36:55;18.30;99.90
10411;DHT22;5251;52.112;8.606;2022-09-09T05:39:20;18.30;99.90
10411;DHT22;5251;52.112;8.606;2022-09-09T05:41:46;18.40;99.90
10411;DHT22;5251;52.112;8.606;2022-09-09T05:44:12;18.40;99.90
10411;DHT22;5251;52.112;8.606;2022-09-09T05:46:39;18.40;99.90
10411;DHT22;5251;52.112;8.606;2022-09-09T05:49:05;18.50;99.90
10411;DHT22;5251;52.112;8.606;2022-09-09T05:51:31;18.40;99.90
10411;DHT22;5251;52.112;8.606;2022-09-09T05:53:57;18.50;99.90
10411;DHT22;5251;52.112;8.606;2022-09-09T05:56:27;18.60;99.90
10411;DHT22;5251;52.112;8.606;2022-09-09T05:58:54;18.60;99.90
10411;DHT22;5251;52.112;8.606;2022-09-09T06:01:25;18.60;99.90
10411;DHT22;5251;52.112;8.606;2022-09-09T06:03:55;18.70;99.90
10411;DHT22;5251;52.112;8.606;2022-09-09T06:06:23;18.70;99.90
10411;DHT22;5251;52.112;8.606;2022-09-09T06:08:54;18.80;99.90
10411;DHT22;5251;52.112;8.606;2022-09-09T06:11:24;18.90;99.90
10411;DHT22;5251;52.112;8.606;2022-09-09T06:13:50;19.00;99.90
10411;DHT22;5251;52.112;8.606;2022-09-09T06:16:22;19.10;99.90
10411;DHT22;5251;52.112;8.606;2022-09-09T06:18:52;19.30;99.90
10411;DHT22;5251;52.112;8.606;2022-09-09T06:21:24;19.40;99.90
10411;DHT22;5251;52.112;8.606;2022-09-09T06:23:50;19.60;99.90
10411;DHT22;5251;52.112;8.606;2022-09-09T06:26:17;19.70;99.90
10411;DHT22;5251;52.112;8.606;2022-09-09T06:28:44;19.80;99.90
10411;DHT22;5251;52.112;8.606;2022-09-09T06:31:12;19.90;99.90
10411;DHT22;5251;52.112;8.606;2022-09-09T06:33:40;20.00;99.90
10411;DHT22;5251;52.112;8.606;2022-09-09T06:36:15;20.10;99.90
10411;DHT22;5251;52.112;8.606;2022-09-09T06:38:42;20.20;99.90
10411;DHT22;5251;52.112;8.606;2022-09-09T06:41:08;20.30;99.90
10411;DHT22;5251;52.112;8.606;2022-09-09T06:43:34;20.30;99.90
10411;DHT22;5251;52.112;8.606;2022-09-09T06:46:11;20.40;99.90
10411;DHT22;5251;52.112;8.606;2022-09-09T06:48:38;20.40;99.90
10411;DHT22;5251;52.112;8.606;2022-09-09T06:51:08;20.50;99.90
10411;DHT22;5251;52.112;8.606;2022-09-09T06:53:35;20.60;99.90
10411;DHT22;5251;52.112;8.606;2022-09-09T06:56:02;20.70;99.90
10411;DHT22;5251;52.112;8.606;2022-09-09T06:58:29;20.70;99.90
10411;DHT22;5251;52.112;8.606;2022-09-09T07:01:07;20.80;99.90
10411;DHT22;5251;52.112;8.606;2022-09-09T07:03:33;20.90;99.90
10411;DHT22;5251;52.112;8.606;2022-09-09T07:05:59;21.00;99.90
10411;DHT22;5251;52.112;8.606;2022-09-09T07:08:25;21.20;99.90
10411;DHT22;5251;52.112;8.606;2022-09-09T07:10:52;21.30;99.90
10411;DHT22;5251;52.112;8.606;2022-09-09T07:13:23;21.40;99.90
10411;DHT22;5251;52.112;8.606;2022-09-09T07:15:51;21.50;99.90
10411;DHT22;5251;52.112;8.606;2022-09-09T07:18:16;21.60;99.90
10411;DHT22;5251;52.112;8.606;2022-09-09T07:20:42;21.70;99.90
10411;DHT22;5251;52.112;8.606;2022-09-09T07:23:08;21.80;99.90
10411;DHT22;5251;52.112;8.606;2022-09-09T07:25:33;21.80;99.90
10411;DHT22;5251;52.112;8.606;2022-09-09T07:27:59;21.80;99.90
10411;DHT22;5251;52.112;8.606;2022-09-09T07:30:24;21.90;99.90
10411;DHT22;5251;52.112;8.606;2022-09-09T07:32:53;22.00;99.90
10411;DHT22;5251;52.112;8.606;2022-09-09T07:35:19;22.00;99.90
10411;DHT22;5251;52.112;8.606;2022-09-09T07:37:45;22.00;99.90
10411;DHT22;5251;52.112;8.606;2022-09-09T07:40:11;22.10;99.90
10411;DHT22;5251;52.112;8.606;2022-09-09T07:42:36;22.10;99.90
10411;DHT22;5251;52.112;8.606;2022-09-09T07:45:03;22.20;99.90
10411;DHT22;5251;52.112;8.606;2022-09-09T07:47:29;22.20;99.90
10411;DHT22;5251;52.112;8.606;2022-09-09T07:49:55;22.40;99.90
10411;DHT22;5251;52.112;8.606;2022-09-09T07:52:21;22.40;99.90
10411;DHT22;5251;52.112;8.606;2022-09-09T07:54:47;22.50;99.90
10411;DHT22;5251;52.112;8.606;2022-09-09T07:57:12;22.70;99.90
10411;DHT22;5251;52.112;8.606;2022-09-09T07:59:38;22.80;99.90
10411;DHT22;5251;52.112;8.606;2022-09-09T08:02:04;22.90;99.70
10411;DHT22;5251;52.112;8.606;2022-09-09T08:04:30;23.00;99.60
10411;DHT22;5251;52.112;8.606;2022-09-09T08:06:58;23.10;98.90
10411;DHT22;5251;52.112;8.606;2022-09-09T08:09:25;23.20;99.00
10411;DHT22;5251;52.112;8.606;2022-09-09T08:11:54;23.30;98.60
10411;DHT22;5251;52.112;8.606;2022-09-09T08:14:21;23.40;98.10
10411;DHT22;5251;52.112;8.606;2022-09-09T08:16:48;23.50;97.90
10411;DHT22;5251;52.112;8.606;2022-09-09T08:19:14;23.60;97.80
10411;DHT22;5251;52.112;8.606;2022-09-09T08:21:41;23.70;97.60
10411;DHT22;5251;52.112;8.606;2022-09-09T08:24:08;23.70;97.60
10411;DHT22;5251;52.112;8.606;2022-09-09T08:26:39;23.80;97.10
10411;DHT22;5251;52.112;8.606;2022-09-09T08:29:07;23.80;96.50
10411;DHT22;5251;52.112;8.606;2022-09-09T08:31:35;23.90;96.00
10411;DHT22;5251;52.112;8.606;2022-09-09T08:34:03;23.90;95.90
10411;DHT22;5251;52.112;8.606;2022-09-09T08:36:32;24.00;95.60
10411;DHT22;5251;52.112;8.606;2022-09-09T08:39:02;24.00;95.90
10411;DHT22;5251;52.112;8.606;2022-09-09T08:45:17;24.10;95.90
10411;DHT22;5251;52.112;8.606;2022-09-09T08:53:14;24.30;95.60
10411;DHT22;5251;52.112;8.606;2022-09-09T08:55:52;24.40;95.40
10411;DHT22;5251;52.112;8.606;2022-09-09T08:58:31;24.40;95.40
10411;DHT22;5251;52.112;8.606;2022-09-09T09:03:57;24.50;94.90
10411;DHT22;5251;52.112;8.606;2022-09-09T09:11:37;24.50;94.40
10411;DHT22;5251;52.112;8.606;2022-09-09T09:19:18;24.70;93.50
10411;DHT22;5251;52.112;8.606;2022-09-09T09:25:16;24.90;93.80
10411;DHT22;5251;52.112;8.606;2022-09-09T09:28:20;25.10;93.60
10411;DHT22;5251;52.112;8.606;2022-09-09T09:30:48;25.30;93.30
10411;DHT22;5251;52.112;8.606;2022-09-09T09:33:46;25.50;92.10
10411;DHT22;5251;52.112;8.606;2022-09-09T09:36:13;25.80;92.20
10411;DHT22;5251;52.112;8.606;2022-09-09T09:38:55;26.00;90.50
10411;DHT22;5251;52.112;8.606;2022-09-09T09:41:39;26.00;90.10
10411;DHT22;5251;52.112;8.606;2022-09-09T09:44:20;26.10;90.10
10411;DHT22;5251;52.112;8.606;2022-09-09T09:46:47;26.10;89.80
10411;DHT22;5251;52.112;8.606;2022-09-09T09:49:12;26.20;88.90
10411;DHT22;5251;52.112;8.606;2022-09-09T09:51:39;26.30;87.60
10411;DHT22;5251;52.112;8.606;2022-09-09T09:54:17;26.40;86.50
10411;DHT22;5251;52.112;8.606;2022-09-09T09:56:45;26.60;87.20
10411;DHT22;5251;52.112;8.606;2022-09-09T09:59:40;26.70;86.00
10411;DHT22;5251;52.112;8.606;2022-09-09T10:04:46;26.80;84.20
10411;DHT22;5251;52.112;8.606;2022-09-09T10:07:22;26.80;81.20
10411;DHT22;5251;52.112;8.606;2022-09-09T10:09:55;26.90;80.80
10411;DHT22;5251;52.112;8.606;2022-09-09T10:20:53;26.40;79.50
10411;DHT22;5251;52.112;8.606;2022-09-09T10:31:51;25.60;82.20
10411;DHT22;5251;52.112;8.606;2022-09-09T10:34:58;25.40;82.50
10411;DHT22;5251;52.112;8.606;2022-09-09T10:40:31;25.20;83.40
10411;DHT22;5251;52.112;8.606;2022-09-09T10:43:16;25.20;85.80
10411;DHT22;5251;52.112;8.606;2022-09-09T10:48:58;25.20;85.90
10411;DHT22;5251;52.112;8.606;2022-09-09T10:54:13;25.30;84.90
10411;DHT22;5251;52.112;8.606;2022-09-09T10:56:43;25.40;86.00
10411;DHT22;5251;52.112;8.606;2022-09-09T10:59:14;25.50;83.90
10411;DHT22;5251;52.112;8.606;2022-09-09T11:02:05;25.60;83.50
10411;DHT22;5251;52.112;8.606;2022-09-09T11:04:48;25.70;84.00
10411;DHT22;5251;52.112;8.606;2022-09-09T11:07:33;25.80;84.30
10411;DHT22;5251;52.112;8.606;2022-09-09T11:10:16;26.00;81.60
10411;DHT22;5251;52.112;8.606;2022-09-09T11:12:45;26.10;78.20
10411;DHT22;5251;52.112;8.606;2022-09-09T11:15:31;26.30;80.30
10411;DHT22;5251;52.112;8.606;2022-09-09T11:18:01;26.40;81.20
10411;DHT22;5251;52.112;8.606;2022-09-09T11:20:29;26.60;79.70
10411;DHT22;5251;52.112;8.606;2022-09-09T11:23:02;26.70;76.60
10411;DHT22;5251;52.112;8.606;2022-09-09T11:25:43;26.80;75.60
10411;DHT22;5251;52.112;8.606;2022-09-09T11:36:53;26.90;73.30
10411;DHT22;5251;52.112;8.606;2022-09-09T11:41:52;26.70;74.10
10411;DHT22;5251;52.112;8.606;2022-09-09T11:44:30;26.70;74.50
10411;DHT22;5251;52.112;8.606;2022-09-09T11:46:56;26.60;74.80
10411;DHT22;5251;52.112;8.606;2022-09-09T11:49:28;26.60;74.30
10411;DHT22;5251;52.112;8.606;2022-09-09T11:51:54;26.60;74.10
10411;DHT22;5251;52.112;8.606;2022-09-09T11:54:31;26.60;75.40
10411;DHT22;5251;52.112;8.606;2022-09-09T11:56:57;26.70;75.10
10411;DHT22;5251;52.112;8.606;2022-09-09T11:59:26;26.70;73.30
10411;DHT22;5251;52.112;8.606;2022-09-09T12:02:09;26.70;74.30
10411;DHT22;5251;52.112;8.606;2022-09-09T12:04:40;26.70;72.30
10411;DHT22;5251;52.112;8.606;2022-09-09T12:14:58;26.50;72.50
10411;DHT22;5251;52.112;8.606;2022-09-09T12:17:29;26.30;72.50
10411;DHT22;5251;52.112;8.606;2022-09-09T12:28:14;26.20;73.70
10411;DHT22;5251;52.112;8.606;2022-09-09T12:31:04;26.20;72.30
10411;DHT22;5251;52.112;8.606;2022-09-09T12:33:38;26.20;71.60
10411;DHT22;5251;52.112;8.606;2022-09-09T12:36:15;26.20;69.80
10411;DHT22;5251;52.112;8.606;2022-09-09T12:38:42;26.20;68.70
10411;DHT22;5251;52.112;8.606;2022-09-09T12:41:23;26.10;69.90
10411;DHT22;5251;52.112;8.606;2022-09-09T12:43:49;26.10;69.90
10411;DHT22;5251;52.112;8.606;2022-09-09T12:46:43;26.10;68.60
10411;DHT22;5251;52.112;8.606;2022-09-09T12:51:53;26.00;67.60
10411;DHT22;5251;52.112;8.606;2022-09-09T12:54:19;26.00;68.20
10411;DHT22;5251;52.112;8.606;2022-09-09T12:56:46;25.90;67.70
10411;DHT22;5251;52.112;8.606;2022-09-09T12:59:34;25.90;68.70
10411;DHT22;5251;52.112;8.606;2022-09-09T13:02:00;26.00;68.50
10411;DHT22;5251;52.112;8.606;2022-09-09T13:04:26;26.00;68.90
10411;DHT22;5251;52.112;8.606;2022-09-09T13:06:52;26.00;70.00
10411;DHT22;5251;52.112;8.606;2022-09-09T13:09:18;26.20;71.20
10411;DHT22;5251;52.112;8.606;2022-09-09T13:11:50;26.30;71.10
10411;DHT22;5251;52.112;8.606;2022-09-09T13:14:34;26.40;72.70
10411;DHT22;5251;52.112;8.606;2022-09-09T13:17:04;26.50;71.00
10411;DHT22;5251;52.112;8.606;2022-09-09T13:19:37;26.60;69.20
10411;DHT22;5251;52.112;8.606;2022-09-09T13:22:19;26.70;69.10
10411;DHT22;5251;52.112;8.606;2022-09-09T13:24:45;26.70;68.20
10411;DHT22;5251;52.112;8.606;2022-09-09T13:27:38;26.80;72.10
10411;DHT22;5251;52.112;8.606;2022-09-09T13:30:24;26.80;76.80
10411;DHT22;5251;52.112;8.606;2022-09-09T13:33:05;26.80;76.50
10411;DHT22;5251;52.112;8.606;2022-09-09T13:35:32;26.80;78.00
10411;DHT22;5251;52.112;8.606;2022-09-09T13:37:58;26.80;78.70
10411;DHT22;5251;52.112;8.606;2022-09-09T13:40:26;26.70;80.30
10411;DHT22;5251;52.112;8.606;2022-09-09T13:42:55;26.80;80.10
10411;DHT22;5251;52.112;8.606;2022-09-09T13:45:24;26.70;80.40
10411;DHT22;5251;52.112;8.606;2022-09-09T13:47:52;26.70;79.50
10411;DHT22;5251;52.112;8.606;2022-09-09T13:50:29;26.70;79.00
10411;DHT22;5251;52.112;8.606;2022-09-09T13:52:57;26.80;77.50
10411;DHT22;5251;52.112;8.606;2022-09-09T13:55:27;26.80;76.40
10411;DHT22;5251;52.112;8.606;2022-09-09T13:57:58;26.70;73.60
10411;DHT22;5251;52.112;8.606;2022-09-09T14:00:25;26.70;75.10
10411;DHT22;5251;52.112;8.606;2022-09-09T14:02:52;26.80;76.00
10411;DHT22;5251;52.112;8.606;2022-09-09T14:05:18;26.80;73.10
10411;DHT22;5251;52.112;8.606;2022-09-09T14:07:44;26.90;75.00
10411;DHT22;5251;52.112;8.606;2022-09-09T14:10:11;27.00;72.30
10411;DHT22;5251;52.112;8.606;2022-09-09T14:12:37;27.10;70.10
10411;DHT22;5251;52.112;8.606;2022-09-09T14:15:05;27.20;69.60
10411;DHT22;5251;52.112;8.606;2022-09-09T14:17:33;27.30;67.20
10411;DHT22;5251;52.112;8.606;2022-09-09T14:19:59;27.30;67.20
10411;DHT22;5251;52.112;8.606;2022-09-09T14:22:25;27.40;66.90
10411;DHT22;5251;52.112;8.606;2022-09-09T14:24:51;27.30;66.10
10411;DHT22;5251;52.112;8.606;2022-09-09T14:27:17;27.30;67.80
10411;DHT22;5251;52.112;8.606;2022-09-09T14:29:44;27.30;67.70
10411;DHT22;5251;52.112;8.606;2022-09-09T14:32:10;27.30;65.90
10411;DHT22;5251;52.112;8.606;2022-09-09T14:34:36;27.30;66.80
10411;DHT22;5251;52.112;8.606;2022-09-09T14:37:02;27.20;66.30
10411;DHT22;5251;52.112;8.606;2022-09-09T14:39:27;27.20;66.30
10411;DHT22;5251;52.112;8.606;2022-09-09T14:41:53;27.10;64.80
10411;DHT22;5251;52.112;8.606;2022-09-09T14:44:18;27.00;64.70
10411;DHT22;5251;52.112;8.606;2022-09-09T14:46:44;26.90;64.40
10411;DHT22;5251;52.112;8.606;2022-09-09T14:49:10;26.80;66.00
10411;DHT22;5251;52.112;8.606;2022-09-09T14:51:38;26.70;65.50
10411;DHT22;5251;52.112;8.606;2022-09-09T14:54:04;26.60;66.80
10411;DHT22;5251;52.112;8.606;2022-09-09T14:56:31;26.50;66.30
10411;DHT22;5251;52.112;8.606;2022-09-09T14:58:59;26.40;66.90
10411;DHT22;5251;52.112;8.606;2022-09-09T15:01:29;26.40;66.80
10411;DHT22;5251;52.112;8.606;2022-09-09T15:03:57;26.10;67.00
10411;DHT22;5251;52.112;8.606;2022-09-09T15:06:25;26.20;67.90
10411;DHT22;5251;52.112;8.606;2022-09-09T15:08:53;26.20;68.70
10411;DHT22;5251;52.112;8.606;2022-09-09T15:11:19;26.10;68.60
10411;DHT22;5251;52.112;8.606;2022-09-09T15:13:45;26.00;69.30
10411;DHT22;5251;52.112;8.606;2022-09-09T15:16:14;26.00;68.20
10411;DHT22;5251;52.112;8.606;2022-09-09T15:18:41;26.00;66.70
10411;DHT22;5251;52.112;8.606;2022-09-09T15:21:15;25.90;66.90
10411;DHT22;5251;52.112;8.606;2022-09-09T15:23:42;25.90;67.60
10411;DHT22;5251;52.112;8.606;2022-09-09T15:26:09;25.80;68.50
10411;DHT22;5251;52.112;8.606;2022-09-09T15:28:36;25.90;68.70
10411;DHT22;5251;52.112;8.606;2022-09-09T15:31:06;25.90;66.60
10411;DHT22;5251;52.112;8.606;2022-09-09T15:33:33;25.90;67.40
10411;DHT22;5251;52.112;8.606;2022-09-09T15:35:59;25.90;67.40
10411;DHT22;5251;52.112;8.606;2022-09-09T15:38:24;26.00;67.50
10411;DHT22;5251;52.112;8.606;2022-09-09T15:40:54;26.00;68.60
10411;DHT22;5251;52.112;8.606;2022-09-09T15:43:21;26.00;68.70
10411;DHT22;5251;52.112;8.606;2022-09-09T15:45:53;26.10;67.00
10411;DHT22;5251;52.112;8.606;2022-09-09T15:48:25;26.10;67.50
10411;DHT22;5251;52.112;8.606;2022-09-09T15:51:02;26.20;66.50
10411;DHT22;5251;52.112;8.606;2022-09-09T15:53:29;26.10;67.30
10411;DHT22;5251;52.112;8.606;2022-09-09T15:55:55;26.10;66.90
10411;DHT22;5251;52.112;8.606;2022-09-09T15:58:21;26.10;66.40
10411;DHT22;5251;52.112;8.606;2022-09-09T16:00:46;26.00;66.10
10411;DHT22;5251;52.112;8.606;2022-09-09T16:03:12;26.00;67.30
10411;DHT22;5251;52.112;8.606;2022-09-09T16:05:38;25.90;67.10
10411;DHT22;5251;52.112;8.606;2022-09-09T16:08:03;25.90;66.90
10411;DHT22;5251;52.112;8.606;2022-09-09T16:10:29;25.80;67.70
10411;DHT22;5251;52.112;8.606;2022-09-09T16:12:56;25.80;67.70
10411;DHT22;5251;52.112;8.606;2022-09-09T16:15:21;25.80;68.30
10411;DHT22;5251;52.112;8.606;2022-09-09T16:17:48;25.70;67.70
10411;DHT22;5251;52.112;8.606;2022-09-09T16:20:14;25.80;67.70
10411;DHT22;5251;52.112;8.606;2022-09-09T16:22:40;25.70;67.70
10411;DHT22;5251;52.112;8.606;2022-09-09T16:25:05;25.70;68.50
10411;DHT22;5251;52.112;8.606;2022-09-09T16:27:31;25.60;69.80
10411;DHT22;5251;52.112;8.606;2022-09-09T16:29:57;25.60;69.40
10411;DHT22;5251;52.112;8.606;2022-09-09T16:32:23;25.50;69.20
10411;DHT22;5251;52.112;8.606;2022-09-09T16:34:48;25.30;69.20
10411;DHT22;5251;52.112;8.606;2022-09-09T16:37:14;25.20;70.30
10411;DHT22;5251;52.112;8.606;2022-09-09T16:39:39;25.10;71.20
10411;DHT22;5251;52.112;8.606;2022-09-09T16:42:05;24.90;72.20
10411;DHT22;5251;52.112;8.606;2022-09-09T16:44:30;24.80;71.60
10411;DHT22;5251;52.112;8.606;2022-09-09T16:46:56;24.60;72.60
10411;DHT22;5251;52.112;8.606;2022-09-09T16:49:22;24.60;73.60
10411;DHT22;5251;52.112;8.606;2022-09-09T16:51:50;24.40;73.40
10411;DHT22;5251;52.112;8.606;2022-09-09T16:54:19;24.30;73.80
10411;DHT22;5251;52.112;8.606;2022-09-09T16:56:46;24.20;74.20
10411;DHT22;5251;52.112;8.606;2022-09-09T16:59:17;24.10;74.20
10411;DHT22;5251;52.112;8.606;2022-09-09T17:01:44;24.00;73.60
10411;DHT22;5251;52.112;8.606;2022-09-09T17:04:16;24.00;73.20
10411;DHT22;5251;52.112;8.606;2022-09-09T17:06:46;23.90;73.70
10411;DHT22;5251;52.112;8.606;2022-09-09T17:09:15;23.80;73.30
10411;DHT22;5251;52.112;8.606;2022-09-09T17:11:40;23.70;73.30
10411;DHT22;5251;52.112;8.606;2022-09-09T17:14:08;23.60;74.40
10411;DHT22;5251;52.112;8.606;2022-09-09T17:16:35;23.60;75.10
10411;DHT22;5251;52.112;8.606;2022-09-09T17:19:02;23.50;75.10
10411;DHT22;5251;52.112;8.606;2022-09-09T17:21:30;23.40;75.30
10411;DHT22;5251;52.112;8.606;2022-09-09T17:23:56;23.40;76.50
10411;DHT22;5251;52.112;8.606;2022-09-09T17:26:25;23.30;77.00
10411;DHT22;5251;52.112;8.606;2022-09-09T17:28:55;23.20;77.50
10411;DHT22;5251;52.112;8.606;2022-09-09T17:31:24;23.10;78.20
10411;DHT22;5251;52.112;8.606;2022-09-09T17:33:51;23.10;78.30
10411;DHT22;5251;52.112;8.606;2022-09-09T17:36:26;23.00;78.70
10411;DHT22;5251;52.112;8.606;2022-09-09T17:38:52;22.90;78.50
10411;DHT22;5251;52.112;8.606;2022-09-09T17:41:24;22.80;77.50
10411;DHT22;5251;52.112;8.606;2022-09-09T17:43:50;22.80;78.50
10411;DHT22;5251;52.112;8.606;2022-09-09T17:46:17;22.70;79.70
10411;DHT22;5251;52.112;8.606;2022-09-09T17:48:45;22.60;80.20
10411;DHT22;5251;52.112;8.606;2022-09-09T17:51:15;22.50;80.70
10411;DHT22;5251;52.112;8.606;2022-09-09T17:53:47;22.40;81.40
10411;DHT22;5251;52.112;8.606;2022-09-09T17:56:16;22.40;82.30
10411;DHT22;5251;52.112;8.606;2022-09-09T17:58:41;22.30;83.00
10411;DHT22;5251;52.112;8.606;2022-09-09T18:01:22;22.20;82.90
10411;DHT22;5251;52.112;8.606;2022-09-09T18:03:49;22.10;83.00
10411;DHT22;5251;52.112;8.606;2022-09-09T18:06:18;22.10;83.70